Time;durP1;ratioP1;P1;durP2;ratioP2;P2;SDS_P1;SDS_P2;PMS_P1;PMS_P2;Temp;Humidity;BMP_temperature;BMP_pressure;BME280_temperature;BME280_humidity;BME280_pressure;Samples;Min_cycle;Max_cycle;Signal;HPM_P1;HPM_P2
2023/12/08 00:02:15;;;;;;;21.58;3.50;;;9.30;99.90;;;;;;5147223;27;20046;-48
2023/12/08 00:04:41;;;;;;;12.30;2.97;;;9.20;99.90;;;;;;5146836;27;20288;-48
2023/12/08 00:07:06;;;;;;;19.33;3.72;;;9.30;99.90;;;;;;5147031;27;20069;-50
2023/12/08 00:09:32;;;;;;;25.25;3.85;;;9.20;99.90;;;;;;5146981;27;20094;-47
2023/12/08 00:11:58;;;;;;;24.67;3.85;;;9.20;99.90;;;;;;5146523;27;20284;-49
2023/12/08 00:14:23;;;;;;;29.38;4.38;;;9.10;99.90;;;;;;5147121;27;20034;-48
2023/12/08 00:16:49;;;;;;;24.83;4.28;;;9.10;99.90;;;;;;5147141;27;20031;-47
2023/12/08 00:19:15;;;;;;;25.77;4.13;;;9.10;99.90;;;;;;5146955;27;20292;-47
2023/12/08 00:21:40;;;;;;;35.85;3.88;;;9.20;99.90;;;;;;5146796;27;20281;-48
2023/12/08 00:24:06;;;;;;;20.80;3.50;;;9.30;99.90;;;;;;5147007;27;20180;-47
2023/12/08 00:26:32;;;;;;;24.92;4.13;;;9.30;99.90;;;;;;5145888;27;20037;-47
2023/12/08 00:28:58;;;;;;;25.60;3.90;;;9.40;99.90;;;;;;5146623;28;20022;-50
2023/12/08 00:31:23;;;;;;;25.30;4.03;;;9.50;99.90;;;;;;5145744;28;20039;-50
2023/12/08 00:33:49;;;;;;;23.80;3.97;;;9.50;99.90;;;;;;5146663;28;20086;-50
2023/12/08 00:36:16;;;;;;;24.70;3.40;;;9.50;99.90;;;;;;5146920;28;20026;-50
2023/12/08 00:38:42;;;;;;;24.27;4.13;;;9.40;99.90;;;;;;5145466;28;20027;-49
2023/12/08 00:41:09;;;;;;;27.63;4.65;;;9.30;99.90;;;;;;5145535;28;20035;-50
2023/12/08 00:43:35;;;;;;;14.18;2.80;;;9.30;99.90;;;;;;5146700;28;20265;-50
2023/12/08 00:46:01;;;;;;;15.93;3.80;;;9.20;99.90;;;;;;5146742;27;20051;-51
2023/12/08 00:48:26;;;;;;;24.70;3.75;;;9.20;99.90;;;;;;5147060;27;20038;-51
2023/12/08 00:50:52;;;;;;;24.25;3.53;;;9.20;99.90;;;;;;5150860;27;20031;-50
2023/12/08 00:53:18;;;;;;;23.10;3.58;;;9.20;99.90;;;;;;5149678;27;20041;-51
2023/12/08 00:55:44;;;;;;;23.88;4.38;;;9.30;99.90;;;;;;5150683;27;20177;-49
2023/12/08 00:58:11;;;;;;;23.35;4.25;;;9.30;99.90;;;;;;5149765;27;20082;-51
2023/12/08 01:00:37;;;;;;;14.30;3.00;;;9.30;99.90;;;;;;5150753;27;20023;-51
2023/12/08 01:03:03;;;;;;;16.92;2.95;;;9.30;99.90;;;;;;5150595;27;20352;-51
2023/12/08 01:05:28;;;;;;;17.52;3.05;;;9.30;99.90;;;;;;5150512;27;20111;-51
2023/12/08 01:07:54;;;;;;;21.15;3.53;;;9.30;99.90;;;;;;5150064;27;20051;-49
2023/12/08 01:10:20;;;;;;;15.20;3.33;;;9.30;99.90;;;;;;5150722;27;20184;-48
2023/12/08 01:12:46;;;;;;;17.52;3.00;;;9.40;99.90;;;;;;5150571;27;20214;-50
2023/12/08 01:15:12;;;;;;;19.10;2.90;;;9.30;99.90;;;;;;5149924;27;20035;-48
2023/12/08 01:17:37;;;;;;;17.98;2.30;;;9.30;99.90;;;;;;5150230;27;20034;-49
2023/12/08 01:20:05;;;;;;;15.85;3.08;;;9.30;99.90;;;;;;5150365;27;20024;-50
2023/12/08 01:22:30;;;;;;;17.85;3.58;;;9.30;99.90;;;;;;5150315;27;20030;-50
2023/12/08 01:24:56;;;;;;;18.85;2.30;;;9.40;99.90;;;;;;5150421;27;20039;-49
2023/12/08 01:27:22;;;;;;;20.08;4.55;;;9.40;99.90;;;;;;5150350;27;20027;-48
2023/12/08 01:29:47;;;;;;;20.50;4.13;;;9.50;99.90;;;;;;5150056;27;20046;-48
2023/12/08 01:32:13;;;;;;;22.23;3.35;;;9.50;99.90;;;;;;5150204;27;20035;-48
2023/12/08 01:34:39;;;;;;;22.27;3.75;;;9.50;99.90;;;;;;5149159;27;20268;-50
2023/12/08 01:37:04;;;;;;;17.83;3.35;;;9.50;99.90;;;;;;5149776;27;20140;-51
2023/12/08 01:39:30;;;;;;;20.75;3.78;;;9.60;99.90;;;;;;5149777;27;20030;-52
2023/12/08 01:41:56;;;;;;;26.10;3.47;;;9.60;99.90;;;;;;5148877;27;20019;-52
2023/12/08 01:44:22;;;;;;;25.60;3.55;;;9.60;99.90;;;;;;5149863;27;20031;-50
2023/12/08 01:46:47;;;;;;;19.27;3.38;;;9.60;99.90;;;;;;5149367;27;20019;-51
2023/12/08 01:49:14;;;;;;;25.85;4.40;;;9.70;99.90;;;;;;5131397;27;20040;-51
2023/12/08 01:51:40;;;;;;;16.70;3.28;;;9.70;99.90;;;;;;5149759;27;20027;-51
2023/12/08 01:54:06;;;;;;;22.48;3.78;;;9.70;99.90;;;;;;5149598;27;20027;-51
2023/12/08 01:56:31;;;;;;;15.55;3.08;;;9.70;99.90;;;;;;5149725;27;20027;-51
2023/12/08 01:58:57;;;;;;;19.02;3.22;;;9.70;99.90;;;;;;5149506;27;20160;-50
2023/12/08 02:01:23;;;;;;;22.52;4.50;;;9.60;99.90;;;;;;5148380;27;20015;-50
2023/12/08 02:03:50;;;;;;;18.15;3.22;;;9.50;99.90;;;;;;5148445;27;20332;-50
2023/12/08 02:06:17;;;;;;;22.00;4.43;;;9.40;99.90;;;;;;5148412;27;20035;-50
2023/12/08 02:08:45;;;;;;;20.58;3.60;;;9.40;99.90;;;;;;5148967;27;20046;-50
2023/12/08 02:11:11;;;;;;;20.98;3.80;;;9.30;99.90;;;;;;5148196;27;20031;-50
2023/12/08 02:13:36;;;;;;;30.40;4.75;;;9.20;99.90;;;;;;5149092;27;20322;-50
2023/12/08 02:16:15;;;;;;;25.60;4.22;;;9.20;99.90;;;;;;5149271;27;20084;-51
2023/12/08 02:18:41;;;;;;;21.92;4.38;;;9.10;99.90;;;;;;5148251;27;20042;-50
2023/12/08 02:21:09;;;;;;;21.50;3.53;;;9.20;99.90;;;;;;5148408;27;20283;-48
2023/12/08 02:23:36;;;;;;;20.60;3.38;;;9.20;99.90;;;;;;5148194;27;20027;-47
2023/12/08 02:26:03;;;;;;;17.98;2.90;;;9.20;99.90;;;;;;5149050;27;20272;-47
2023/12/08 02:28:28;;;;;;;25.90;4.03;;;9.20;99.90;;;;;;5131013;27;20055;-47
2023/12/08 02:30:54;;;;;;;19.05;3.17;;;9.20;99.90;;;;;;5148693;27;20076;-47
2023/12/08 02:33:32;;;;;;;22.05;3.50;;;9.20;99.90;;;;;;5148638;27;20049;-47
2023/12/08 02:35:59;;;;;;;23.30;3.67;;;9.20;99.90;;;;;;5148023;27;20023;-49
2023/12/08 02:38:25;;;;;;;20.80;3.80;;;9.30;99.90;;;;;;5147873;27;20046;-46
2023/12/08 02:40:51;;;;;;;15.15;2.47;;;9.30;99.90;;;;;;5147816;27;20332;-47
2023/12/08 02:43:16;;;;;;;21.08;3.28;;;9.30;99.90;;;;;;5147571;27;20297;-49
2023/12/08 02:45:42;;;;;;;25.08;3.83;;;9.40;99.90;;;;;;5148662;27;20027;-47
2023/12/08 02:48:08;;;;;;;15.20;2.85;;;9.40;99.90;;;;;;5130600;27;20058;-48
2023/12/08 02:50:33;;;;;;;25.45;3.40;;;9.40;99.90;;;;;;5130156;27;20061;-47
2023/12/08 02:52:59;;;;;;;21.00;3.97;;;9.40;99.90;;;;;;5148214;27;20304;-47
2023/12/08 02:55:25;;;;;;;16.45;3.03;;;9.40;99.90;;;;;;5148312;27;20042;-47
2023/12/08 02:57:50;;;;;;;33.08;3.97;;;9.30;99.90;;;;;;5148336;27;20019;-47
2023/12/08 03:00:16;;;;;;;14.73;3.28;;;9.40;99.90;;;;;;5148473;27;20054;-47
2023/12/08 03:02:42;;;;;;;23.27;3.72;;;9.30;99.90;;;;;;5147973;27;20030;-47
2023/12/08 03:05:08;;;;;;;24.17;3.75;;;9.40;99.90;;;;;;5148377;27;20049;-50
2023/12/08 03:07:33;;;;;;;23.35;4.07;;;9.40;99.90;;;;;;5147874;27;20058;-49
2023/12/08 03:09:59;;;;;;;25.60;3.33;;;9.40;99.90;;;;;;5147182;27;20046;-50
2023/12/08 03:12:25;;;;;;;24.20;3.97;;;9.40;99.90;;;;;;5147884;27;20140;-49
2023/12/08 03:14:50;;;;;;;13.02;3.15;;;9.40;99.90;;;;;;5147835;27;20023;-50
2023/12/08 03:17:16;;;;;;;13.73;2.95;;;9.40;99.90;;;;;;5147969;27;20110;-50
2023/12/08 03:19:43;;;;;;;19.10;2.90;;;9.40;99.90;;;;;;5147889;27;20043;-50
2023/12/08 03:22:09;;;;;;;16.10;2.22;;;9.30;99.90;;;;;;5147493;27;20030;-50
2023/12/08 03:24:34;;;;;;;19.90;2.72;;;9.30;99.90;;;;;;5146540;27;20039;-50
2023/12/08 03:27:00;;;;;;;19.45;2.53;;;9.30;99.90;;;;;;5147816;27;20042;-48
2023/12/08 03:29:25;;;;;;;14.40;2.60;;;9.30;99.90;;;;;;5146966;27;20031;-47
2023/12/08 03:31:51;;;;;;;17.90;2.70;;;9.30;99.90;;;;;;5146719;27;20034;-47
2023/12/08 03:34:17;;;;;;;16.15;2.55;;;9.30;99.90;;;;;;5146543;27;20023;-47
2023/12/08 03:36:42;;;;;;;16.50;2.45;;;9.30;99.90;;;;;;5146478;27;20027;-46
2023/12/08 03:39:08;;;;;;;16.77;3.53;;;9.30;99.90;;;;;;5147364;27;20078;-48
2023/12/08 03:41:34;;;;;;;24.98;4.55;;;9.30;99.90;;;;;;5147587;27;20019;-46
2023/12/08 03:43:59;;;;;;;24.58;4.32;;;9.30;99.90;;;;;;5147584;27;20050;-47
2023/12/08 03:46:25;;;;;;;20.30;4.93;;;9.30;99.90;;;;;;5147501;27;20035;-47
2023/12/08 03:48:51;;;;;;;26.58;3.35;;;9.40;99.90;;;;;;5146539;27;20172;-47
2023/12/08 03:51:16;;;;;;;23.05;5.05;;;9.40;99.90;;;;;;5147442;27;20235;-47
2023/12/08 03:53:42;;;;;;;28.75;4.43;;;9.40;99.90;;;;;;5146780;27;20035;-47
2023/12/08 03:56:08;;;;;;;22.42;3.78;;;9.40;99.90;;;;;;5146867;27;20027;-46
2023/12/08 03:58:34;;;;;;;26.10;5.05;;;9.40;99.90;;;;;;5147353;27;20027;-49
2023/12/08 04:00:59;;;;;;;25.95;4.40;;;9.40;99.90;;;;;;5147191;27;20027;-49
2023/12/08 04:03:25;;;;;;;20.33;3.75;;;9.40;99.90;;;;;;5147076;27;20091;-49
2023/12/08 04:05:51;;;;;;;29.75;3.90;;;9.50;99.90;;;;;;5147121;27;20035;-52
2023/12/08 04:08:16;;;;;;;22.63;4.03;;;9.50;99.90;;;;;;5146673;27;20051;-49
2023/12/08 04:10:42;;;;;;;22.70;3.45;;;9.50;99.90;;;;;;5146616;27;20030;-49
2023/12/08 04:13:08;;;;;;;25.42;4.65;;;9.50;99.90;;;;;;5146951;27;20031;-49
2023/12/08 04:15:34;;;;;;;31.70;5.13;;;9.50;99.90;;;;;;5145853;27;20315;-49
2023/12/08 04:17:59;;;;;;;30.98;4.95;;;9.50;99.90;;;;;;5145990;27;20294;-48
2023/12/08 04:20:25;;;;;;;25.45;4.75;;;9.50;99.90;;;;;;5146932;27;20027;-49
2023/12/08 04:22:51;;;;;;;28.02;4.47;;;9.50;99.90;;;;;;5146706;27;20039;-46
2023/12/08 04:25:16;;;;;;;23.92;4.97;;;9.50;99.90;;;;;;5146252;27;20019;-46
2023/12/08 04:27:42;;;;;;;30.02;5.20;;;9.50;99.90;;;;;;5146815;27;20054;-49
2023/12/08 04:30:08;;;;;;;27.52;4.53;;;9.50;99.90;;;;;;5146881;27;20312;-45
2023/12/08 04:32:35;;;;;;;29.67;3.75;;;9.50;99.90;;;;;;5145865;28;20181;-47
2023/12/08 04:35:00;;;;;;;39.97;4.40;;;9.50;99.90;;;;;;5145754;28;20031;-48
2023/12/08 04:37:27;;;;;;;23.10;3.80;;;9.50;99.90;;;;;;5146692;28;20054;-49
2023/12/08 04:39:52;;;;;;;30.52;4.28;;;9.40;99.90;;;;;;5146818;28;20039;-49
2023/12/08 04:42:18;;;;;;;19.73;3.65;;;9.40;99.90;;;;;;5146768;28;20027;-48
2023/12/08 04:44:44;;;;;;;26.05;4.38;;;9.40;99.90;;;;;;5146616;28;20072;-49
2023/12/08 04:47:10;;;;;;;23.98;4.13;;;9.40;99.90;;;;;;5146647;28;20030;-49
2023/12/08 04:49:36;;;;;;;25.27;3.38;;;9.40;99.90;;;;;;5146667;28;20348;-46
2023/12/08 04:52:02;;;;;;;27.73;4.55;;;9.40;99.90;;;;;;5146583;28;20280;-46
2023/12/08 04:54:28;;;;;;;27.15;3.70;;;9.40;99.90;;;;;;5146653;28;20238;-46
2023/12/08 04:56:54;;;;;;;14.98;2.95;;;9.40;99.90;;;;;;5146378;28;20023;-46
2023/12/08 04:59:19;;;;;;;18.15;2.63;;;9.40;99.90;;;;;;5146601;28;20115;-46
2023/12/08 05:01:50;;;;;;;19.38;2.90;;;9.40;99.90;;;;;;5145437;28;20023;-46
2023/12/08 05:04:17;;;;;;;16.95;2.90;;;9.40;99.90;;;;;;5146340;28;20098;-45
2023/12/08 05:06:43;;;;;;;21.45;3.25;;;9.40;99.90;;;;;;5145199;28;20031;-46
2023/12/08 05:09:10;;;;;;;20.17;3.42;;;9.50;99.90;;;;;;5146291;28;20026;-51
2023/12/08 05:11:36;;;;;;;16.40;2.67;;;9.50;99.90;;;;;;5146300;28;20061;-49
2023/12/08 05:14:02;;;;;;;23.65;3.45;;;9.50;99.90;;;;;;5146472;28;20083;-47
2023/12/08 05:16:29;;;;;;;19.40;2.42;;;9.50;99.90;;;;;;5145083;28;20031;-47
2023/12/08 05:18:54;;;;;;;20.05;4.18;;;9.50;99.90;;;;;;5146372;28;20084;-46
2023/12/08 05:21:20;;;;;;;18.23;2.55;;;9.40;99.90;;;;;;5146380;28;20061;-47
2023/12/08 05:23:46;;;;;;;22.90;3.55;;;9.40;99.90;;;;;;5146504;28;20083;-49
2023/12/08 05:26:11;;;;;;;13.68;2.42;;;9.40;99.90;;;;;;5145332;28;20035;-47
2023/12/08 05:28:37;;;;;;;19.83;3.35;;;9.40;99.90;;;;;;5145272;28;20039;-47
2023/12/08 05:31:04;;;;;;;13.90;2.08;;;9.40;99.90;;;;;;5146095;28;20096;-46
2023/12/08 05:33:30;;;;;;;12.70;2.30;;;9.50;99.90;;;;;;5145119;28;20062;-48
2023/12/08 05:35:56;;;;;;;13.60;2.33;;;9.50;99.90;;;;;;5148941;27;20269;-49
2023/12/08 05:38:22;;;;;;;15.80;2.47;;;9.50;99.90;;;;;;5149972;27;20084;-52
2023/12/08 05:40:47;;;;;;;22.17;2.47;;;9.40;99.90;;;;;;5149872;27;20123;-51
2023/12/08 05:43:13;;;;;;;14.13;2.42;;;9.40;99.90;;;;;;5149893;27;20035;-50
2023/12/08 05:45:38;;;;;;;22.55;2.75;;;9.40;99.90;;;;;;5149900;27;20150;-53
2023/12/08 05:48:05;;;;;;;20.25;3.67;;;9.40;99.90;;;;;;5149567;27;20355;-51
2023/12/08 05:50:30;;;;;;;13.48;2.53;;;9.40;99.90;;;;;;5148802;27;20193;-51
2023/12/08 05:52:56;;;;;;;18.48;2.75;;;9.40;99.90;;;;;;5149577;27;20027;-49
2023/12/08 05:55:22;;;;;;;18.08;2.78;;;9.40;99.90;;;;;;5149517;27;20023;-48
2023/12/08 05:57:48;;;;;;;18.88;3.25;;;9.40;99.90;;;;;;5149568;27;20264;-48
2023/12/08 06:00:17;;;;;;;21.55;3.10;;;9.40;99.90;;;;;;5149476;27;20046;-48
2023/12/08 06:02:43;;;;;;;20.58;3.33;;;9.40;99.90;;;;;;5149220;27;20037;-48
2023/12/08 06:05:10;;;;;;;19.80;3.00;;;9.50;99.90;;;;;;5149560;27;20042;-47
2023/12/08 06:07:36;;;;;;;17.67;3.03;;;9.50;99.90;;;;;;5149023;27;20047;-51
2023/12/08 06:10:02;;;;;;;20.02;3.03;;;9.60;99.90;;;;;;5149363;27;20090;-49
2023/12/08 06:12:28;;;;;;;20.38;2.83;;;9.50;99.90;;;;;;5149235;27;20027;-49
2023/12/08 06:14:54;;;;;;;24.70;3.47;;;9.60;99.90;;;;;;5149623;27;20019;-48
2023/12/08 06:17:20;;;;;;;22.08;3.40;;;9.60;99.90;;;;;;5149220;27;20019;-49
2023/12/08 06:19:46;;;;;;;20.38;4.05;;;9.70;99.90;;;;;;5148689;27;20038;-49
2023/12/08 06:22:11;;;;;;;24.08;4.13;;;9.70;99.90;;;;;;5148195;27;20023;-50
2023/12/08 06:24:37;;;;;;;34.80;5.30;;;9.80;99.90;;;;;;5149139;27;20087;-51
2023/12/08 06:27:03;;;;;;;21.17;3.80;;;9.90;99.90;;;;;;5149056;27;20046;-51
2023/12/08 06:29:29;;;;;;;23.25;3.15;;;9.90;99.90;;;;;;5147810;27;20023;-51
2023/12/08 06:31:55;;;;;;;28.75;4.15;;;10.00;99.90;;;;;;5148972;27;20079;-51
2023/12/08 06:34:20;;;;;;;17.80;3.28;;;10.10;99.90;;;;;;5148317;27;20411;-52
2023/12/08 06:36:46;;;;;;;21.60;2.92;;;10.10;99.90;;;;;;5148770;27;20078;-52
2023/12/08 06:39:12;;;;;;;21.23;3.83;;;10.10;99.90;;;;;;5147744;27;20054;-51
2023/12/08 06:41:38;;;;;;;20.02;3.25;;;10.10;99.90;;;;;;5147518;27;20181;-50
2023/12/08 06:44:04;;;;;;;26.80;3.85;;;10.20;99.90;;;;;;5148707;27;20046;-48
2023/12/08 06:46:29;;;;;;;26.08;4.57;;;10.20;99.90;;;;;;5148153;27;20042;-51
2023/12/08 06:48:55;;;;;;;28.10;4.03;;;10.30;99.90;;;;;;5148140;27;20064;-51
2023/12/08 06:51:21;;;;;;;20.00;4.40;;;10.30;99.90;;;;;;5148189;27;20019;-50
2023/12/08 06:53:46;;;;;;;26.85;4.47;;;10.20;99.90;;;;;;5148424;27;20031;-51
2023/12/08 06:56:12;;;;;;;16.00;2.90;;;10.30;99.90;;;;;;5148564;27;20031;-51
2023/12/08 06:58:38;;;;;;;31.70;3.72;;;10.20;99.90;;;;;;5147331;27;20023;-51
2023/12/08 07:01:04;;;;;;;24.90;3.72;;;10.30;99.90;;;;;;5148446;27;20094;-51
2023/12/08 07:03:29;;;;;;;26.60;4.43;;;10.20;99.90;;;;;;5147071;27;20305;-51
2023/12/08 07:05:55;;;;;;;26.65;3.55;;;10.20;99.90;;;;;;5148091;27;20027;-48
2023/12/08 07:08:21;;;;;;;21.52;3.22;;;10.20;99.90;;;;;;5147649;27;20055;-49
2023/12/08 07:10:47;;;;;;;24.38;3.33;;;10.20;99.90;;;;;;5148084;27;20098;-48
2023/12/08 07:13:13;;;;;;;28.20;5.25;;;10.10;99.90;;;;;;5147141;27;20077;-49
2023/12/08 07:15:39;;;;;;;26.58;4.25;;;10.10;99.90;;;;;;5147983;27;20023;-48
2023/12/08 07:18:05;;;;;;;21.60;3.80;;;10.10;99.90;;;;;;5148116;27;20039;-51
2023/12/08 07:20:30;;;;;;;26.48;4.07;;;10.10;99.90;;;;;;5147982;27;20023;-51
2023/12/08 07:22:56;;;;;;;30.05;4.55;;;10.10;99.90;;;;;;5147370;27;20039;-51
2023/12/08 07:25:21;;;;;;;26.80;3.85;;;10.10;99.90;;;;;;5146686;27;20059;-51
2023/12/08 07:27:47;;;;;;;20.38;3.97;;;10.10;99.90;;;;;;5147813;27;20030;-51
2023/12/08 07:30:13;;;;;;;25.02;4.35;;;10.10;99.90;;;;;;5147904;27;20027;-51
2023/12/08 07:32:39;;;;;;;24.15;5.38;;;10.00;99.90;;;;;;5147730;27;20039;-49
2023/12/08 07:35:06;;;;;;;24.17;3.85;;;10.00;99.90;;;;;;5147642;27;20026;-49
2023/12/08 07:37:31;;;;;;;28.58;4.53;;;10.00;99.90;;;;;;5147473;27;20273;-49
2023/12/08 07:39:57;;;;;;;24.63;3.92;;;9.90;99.90;;;;;;5147510;27;20054;-49
2023/12/08 07:42:22;;;;;;;35.35;4.90;;;9.90;99.90;;;;;;5147308;27;20019;-52
2023/12/08 07:44:48;;;;;;;26.50;3.97;;;9.90;99.90;;;;;;5147260;27;20055;-49
2023/12/08 07:47:14;;;;;;;30.88;3.97;;;9.90;99.90;;;;;;5147313;27;20027;-49
2023/12/08 07:49:40;;;;;;;26.15;3.88;;;10.00;99.90;;;;;;5147245;27;20097;-49
2023/12/08 07:52:05;;;;;;;22.30;3.85;;;10.00;99.90;;;;;;5147942;27;20177;-49
2023/12/08 07:54:32;;;;;;;32.42;5.25;;;9.90;99.90;;;;;;5145923;27;20312;-49
2023/12/08 07:57:00;;;;;;;30.40;5.10;;;9.90;99.90;;;;;;5146798;27;20019;-49
2023/12/08 07:59:26;;;;;;;26.58;4.25;;;10.00;99.90;;;;;;5146132;27;20030;-48
2023/12/08 08:01:51;;;;;;;32.50;4.43;;;9.90;99.90;;;;;;5147102;27;20026;-51
2023/12/08 08:04:17;;;;;;;35.72;4.93;;;9.90;99.90;;;;;;5147084;27;20027;-49
2023/12/08 08:06:43;;;;;;;26.42;3.95;;;9.90;99.90;;;;;;5146844;27;20038;-49
2023/12/08 08:09:08;;;;;;;28.52;4.43;;;9.90;99.90;;;;;;5145851;27;20039;-49
2023/12/08 08:11:34;;;;;;;33.38;4.72;;;10.00;99.90;;;;;;5145866;27;20030;-48
2023/12/08 08:14:00;;;;;;;29.83;4.18;;;10.10;99.90;;;;;;5146875;27;20031;-49
2023/12/08 08:16:25;;;;;;;27.10;4.78;;;10.10;99.90;;;;;;5147175;27;20047;-49
2023/12/08 08:18:51;;;;;;;35.95;5.22;;;10.10;99.90;;;;;;5145700;27;20071;-46
2023/12/08 08:21:17;;;;;;;25.17;3.88;;;10.10;99.90;;;;;;5146640;27;20207;-46
2023/12/08 08:23:43;;;;;;;29.40;5.20;;;10.10;99.90;;;;;;5146998;27;20031;-46
2023/12/08 08:26:08;;;;;;;36.20;4.53;;;10.20;99.90;;;;;;5146399;27;20043;-46
2023/12/08 08:28:35;;;;;;;29.58;5.10;;;10.10;99.90;;;;;;5146738;27;20031;-47
2023/12/08 08:31:00;;;;;;;30.27;4.43;;;10.10;99.90;;;;;;5146704;27;20055;-48
2023/12/08 08:33:26;;;;;;;29.70;4.97;;;10.20;99.90;;;;;;5128334;28;20019;-49
2023/12/08 08:35:52;;;;;;;27.35;4.70;;;10.20;99.90;;;;;;5146638;28;20019;-48
2023/12/08 08:38:18;;;;;;;27.90;4.00;;;10.30;99.90;;;;;;5146664;28;20208;-46
2023/12/08 08:40:43;;;;;;;27.83;4.85;;;10.30;99.90;;;;;;5146223;28;20319;-47
2023/12/08 08:43:09;;;;;;;29.20;4.18;;;10.20;99.90;;;;;;5146094;28;20045;-46
2023/12/08 08:45:35;;;;;;;25.70;4.47;;;10.20;99.90;;;;;;5146434;28;20039;-47
2023/12/08 08:48:01;;;;;;;33.70;5.03;;;10.20;99.90;;;;;;5145112;28;20067;-47
2023/12/08 08:50:27;;;;;;;27.55;4.35;;;10.30;99.90;;;;;;5145269;28;20035;-50
2023/12/08 08:52:52;;;;;;;29.23;4.85;;;10.40;99.90;;;;;;5146387;28;20050;-47
2023/12/08 08:55:18;;;;;;;24.90;4.03;;;10.30;99.90;;;;;;5146364;28;20068;-49
2023/12/08 08:57:44;;;;;;;36.60;4.65;;;10.40;99.90;;;;;;5145408;28;20031;-48
2023/12/08 09:00:12;;;;;;;33.70;4.35;;;10.40;99.90;;;;;;5145223;28;20027;-48
2023/12/08 09:02:38;;;;;;;30.50;5.18;;;10.40;99.90;;;;;;5146434;28;20054;-49
2023/12/08 09:05:05;;;;;;;28.02;5.30;;;10.40;99.90;;;;;;5146075;28;20038;-47
2023/12/08 09:07:30;;;;;;;31.70;5.38;;;10.50;99.90;;;;;;5127780;28;20051;-49
2023/12/08 09:09:57;;;;;;;33.03;5.05;;;10.50;99.90;;;;;;5147443;27;20090;-49
2023/12/08 09:12:22;;;;;;;21.23;4.05;;;10.50;99.90;;;;;;5148841;27;20034;-50
2023/12/08 09:14:48;;;;;;;37.80;5.32;;;10.50;99.90;;;;;;5150261;27;20050;-49
2023/12/08 09:17:14;;;;;;;24.55;4.03;;;10.50;99.90;;;;;;5150046;27;20030;-49
2023/12/08 09:19:39;;;;;;;22.60;3.85;;;10.50;99.90;;;;;;5150182;27;20098;-48
2023/12/08 09:22:05;;;;;;;24.20;4.13;;;10.60;99.90;;;;;;5150149;27;20057;-50
2023/12/08 09:24:31;;;;;;;20.45;3.90;;;10.70;99.90;;;;;;5149165;27;20040;-50
2023/12/08 09:26:56;;;;;;;24.65;3.55;;;10.60;99.90;;;;;;5149889;27;20136;-50
2023/12/08 09:29:22;;;;;;;25.92;4.28;;;10.70;99.90;;;;;;5149874;27;20043;-51
2023/12/08 09:31:48;;;;;;;29.08;5.40;;;10.70;99.90;;;;;;5149834;27;20314;-51
2023/12/08 09:34:14;;;;;;;24.95;4.38;;;10.70;99.90;;;;;;5149868;27;20042;-51
2023/12/08 09:36:40;;;;;;;20.88;4.55;;;10.70;99.90;;;;;;5149651;27;20034;-48
2023/12/08 09:39:08;;;;;;;34.58;5.35;;;10.70;99.90;;;;;;5149880;27;20276;-47
2023/12/08 09:41:33;;;;;;;27.25;4.18;;;10.70;99.90;;;;;;5149696;27;20071;-51
2023/12/08 09:44:15;;;;;;;31.30;4.82;;;10.70;99.90;;;;;;5148469;27;20032;-51
2023/12/08 09:46:44;;;;;;;32.55;6.82;;;10.80;99.90;;;;;;5149207;27;20235;-51
2023/12/08 09:49:21;;;;;;;32.72;4.70;;;10.80;99.90;;;;;;5131145;27;20084;-53
2023/12/08 09:51:47;;;;;;;29.83;5.18;;;10.80;99.90;;;;;;5148425;27;20084;-56
2023/12/08 09:54:12;;;;;;;21.13;4.45;;;10.80;99.90;;;;;;5148377;27;20094;-51
2023/12/08 09:56:38;;;;;;;26.70;4.75;;;10.80;99.90;;;;;;5148976;27;20019;-51
2023/12/08 09:59:04;;;;;;;30.52;4.80;;;10.80;99.90;;;;;;5148016;27;20019;-51
2023/12/08 10:01:29;;;;;;;27.20;4.90;;;10.80;99.90;;;;;;5148233;27;20039;-51
2023/12/08 10:03:55;;;;;;;23.60;4.80;;;10.90;99.90;;;;;;5149408;27;20034;-51
2023/12/08 10:06:21;;;;;;;28.23;5.57;;;10.90;99.90;;;;;;5149209;27;20027;-51
2023/12/08 10:08:46;;;;;;;29.38;4.25;;;10.90;99.90;;;;;;5147975;27;20319;-50
2023/12/08 10:11:12;;;;;;;25.80;4.45;;;10.90;99.90;;;;;;5148859;27;20067;-49
2023/12/08 10:13:38;;;;;;;31.10;6.10;;;10.90;99.90;;;;;;5148761;27;20039;-51
2023/12/08 10:16:03;;;;;;;28.80;4.55;;;11.00;99.90;;;;;;5147853;27;20062;-50
2023/12/08 10:18:29;;;;;;;35.05;4.88;;;10.90;99.90;;;;;;5147801;27;20019;-51
2023/12/08 10:21:20;;;;;;;33.38;5.25;;;10.90;99.90;;;;;;5148341;27;20087;-51
2023/12/08 10:23:46;;;;;;;33.85;5.78;;;10.90;99.90;;;;;;5147817;27;20035;-50
2023/12/08 10:26:16;;;;;;;18.33;4.18;;;10.80;99.90;;;;;;5149026;27;20011;-48
2023/12/08 10:28:42;;;;;;;33.45;5.65;;;10.80;99.90;;;;;;5147695;27;20035;-50
2023/12/08 10:31:08;;;;;;;28.98;4.38;;;10.80;99.90;;;;;;5148496;27;20062;-51
2023/12/08 10:33:34;;;;;;;28.38;5.32;;;10.80;99.90;;;;;;5147422;27;20033;-50
2023/12/08 10:36:00;;;;;;;27.17;5.20;;;10.70;99.90;;;;;;5148591;27;20023;-51
2023/12/08 10:38:26;;;;;;;28.58;4.30;;;10.80;99.90;;;;;;5148403;27;20237;-51
2023/12/08 10:40:55;;;;;;;25.52;4.32;;;10.80;99.90;;;;;;5147233;27;20027;-50
2023/12/08 10:43:25;;;;;;;23.92;4.45;;;10.80;99.90;;;;;;5148150;27;20043;-49
2023/12/08 10:45:54;;;;;;;17.85;3.90;;;10.90;99.90;;;;;;5148624;27;20039;-48
2023/12/08 10:48:20;;;;;;;32.10;5.23;;;10.90;99.90;;;;;;5148078;27;20035;-49
2023/12/08 10:50:50;;;;;;;25.45;4.40;;;11.00;99.90;;;;;;5148244;27;20090;-48
2023/12/08 10:53:19;;;;;;;27.27;5.30;;;11.00;99.90;;;;;;5148155;27;20107;-50
2023/12/08 10:56:04;;;;;;;28.42;5.55;;;11.00;99.90;;;;;;5147312;27;20039;-49
2023/12/08 10:58:32;;;;;;;29.67;5.10;;;11.00;99.90;;;;;;5148303;27;20038;-51
2023/12/08 11:00:58;;;;;;;27.73;5.68;;;11.00;99.90;;;;;;5147135;27;20015;-49
2023/12/08 11:03:24;;;;;;;29.17;6.22;;;11.00;99.90;;;;;;5147102;27;20208;-51
2023/12/08 11:05:59;;;;;;;35.15;7.80;;;11.00;99.90;;;;;;5146863;27;20038;-50
2023/12/08 11:08:24;;;;;;;157.82;68.60;;;11.00;99.90;;;;;;5146444;27;20070;-51
2023/12/08 11:10:52;;;;;;;41.92;9.77;;;11.00;99.90;;;;;;5129841;27;20095;-50
2023/12/08 11:13:27;;;;;;;56.58;16.92;;;11.00;99.90;;;;;;5147457;27;20035;-51
2023/12/08 11:16:18;;;;;;;57.92;15.82;;;11.00;99.90;;;;;;5146541;27;20035;-51
2023/12/08 11:18:44;;;;;;;115.95;42.67;;;11.00;99.90;;;;;;5146668;27;20023;-50
2023/12/08 11:21:11;;;;;;;32.00;8.05;;;11.00;99.90;;;;;;5146754;27;20247;-50
2023/12/08 11:23:37;;;;;;;36.90;9.77;;;11.00;99.90;;;;;;5147491;27;20027;-50
2023/12/08 11:26:12;;;;;;;31.80;4.75;;;11.00;99.90;;;;;;5129452;27;20024;-48
2023/12/08 11:29:12;;;;;;;29.33;5.32;;;11.00;99.90;;;;;;5147598;27;20265;-49
2023/12/08 11:31:52;;;;;;;36.42;5.45;;;11.00;99.90;;;;;;5147534;27;20041;-51
2023/12/08 11:34:33;;;;;;;40.97;6.22;;;11.00;99.90;;;;;;5146856;27;20031;-49
2023/12/08 11:36:58;;;;;;;28.95;5.30;;;11.00;99.90;;;;;;5147037;27;20023;-48
2023/12/08 11:39:43;;;;;;;26.27;5.47;;;11.10;99.90;;;;;;5147064;27;20031;-50
2023/12/08 11:42:16;;;;;;;30.50;5.45;;;11.00;99.90;;;;;;5147255;27;20037;-50
2023/12/08 11:44:43;;;;;;;75.15;23.92;;;11.00;99.90;;;;;;5145475;27;20050;-50
2023/12/08 11:47:09;;;;;;;23.73;7.28;;;11.00;99.90;;;;;;5146926;27;20080;-48
2023/12/08 11:49:38;;;;;;;75.05;24.52;;;11.00;99.90;;;;;;5146706;27;20105;-49
2023/12/08 11:52:10;;;;;;;30.92;6.95;;;11.00;99.90;;;;;;5146796;27;20091;-46
2023/12/08 11:55:03;;;;;;;23.40;5.55;;;11.00;99.90;;;;;;5146779;27;20177;-48
2023/12/08 11:57:29;;;;;;;29.80;6.72;;;11.10;99.90;;;;;;5146582;27;20065;-48
2023/12/08 11:59:55;;;;;;;24.25;3.95;;;11.10;99.90;;;;;;5146900;27;20023;-51
2023/12/08 12:02:21;;;;;;;36.88;5.90;;;11.10;99.90;;;;;;5146197;27;20090;-50
2023/12/08 12:04:50;;;;;;;34.17;8.25;;;11.10;99.90;;;;;;5146536;27;20051;-49
2023/12/08 12:07:18;;;;;;;28.95;5.53;;;11.10;99.90;;;;;;5146012;27;20172;-48
2023/12/08 12:09:44;;;;;;;21.77;5.20;;;11.00;99.90;;;;;;5146347;27;20038;-48
2023/12/08 12:12:27;;;;;;;26.98;4.88;;;11.10;99.90;;;;;;5145176;27;20083;-51
2023/12/08 12:14:56;;;;;;;26.52;5.13;;;11.10;99.90;;;;;;5129862;27;20026;-48
2023/12/08 12:17:25;;;;;;;20.95;5.13;;;11.00;99.90;;;;;;5146215;27;20177;-48
2023/12/08 12:19:51;;;;;;;27.08;4.68;;;11.00;99.90;;;;;;5146539;27;20086;-47
2023/12/08 12:22:17;;;;;;;18.02;3.85;;;11.00;99.90;;;;;;5145952;27;20026;-48
2023/12/08 12:24:43;;;;;;;28.08;4.05;;;11.00;99.90;;;;;;5146049;27;20034;-48
2023/12/08 12:27:08;;;;;;;21.48;4.28;;;11.00;99.90;;;;;;5145168;27;20019;-47
2023/12/08 12:29:34;;;;;;;21.10;3.75;;;11.00;99.90;;;;;;5146473;27;20242;-47
2023/12/08 12:32:00;;;;;;;27.50;4.47;;;11.00;99.90;;;;;;5146301;27;20037;-48
2023/12/08 12:34:26;;;;;;;20.88;4.20;;;11.00;99.90;;;;;;5146381;28;20031;-48
2023/12/08 12:36:51;;;;;;;23.52;9.20;;;11.00;99.90;;;;;;5146371;28;20094;-47
2023/12/08 12:39:17;;;;;;;39.08;13.90;;;11.10;99.90;;;;;;5146002;28;20272;-47
2023/12/08 12:41:43;;;;;;;24.50;7.95;;;11.00;99.90;;;;;;5145256;28;20027;-47